createdAt,value
2018-11-05T00:01:23.308Z,16.07
2018-11-05T00:04:03.699Z,22.80
2018-11-05T00:06:45.493Z,24.32
2018-11-05T00:09:24.557Z,19.25
2018-11-05T00:12:05.274Z,22.70
2018-11-05T00:14:43.614Z,23.80
2018-11-05T00:17:23.933Z,18.90
2018-11-05T00:20:04.594Z,19.48
2018-11-05T00:22:42.395Z,22.87
2018-11-05T00:25:22.528Z,20.88
2018-11-05T00:28:01.505Z,21.35
2018-11-05T00:30:41.290Z,22.62
2018-11-05T00:33:20.531Z,23.15
2018-11-05T00:36:00.148Z,24.82
2018-11-05T00:38:40.570Z,23.47
2018-11-05T00:41:25.655Z,26.90
2018-11-05T00:44:05.198Z,22.73
2018-11-05T00:46:45.514Z,23.50
2018-11-05T00:49:24.830Z,28.95
2018-11-05T00:52:02.204Z,26.35
2018-11-05T00:54:41.741Z,23.38
2018-11-05T00:57:23.627Z,30.68
2018-11-05T01:00:03.397Z,29.57
2018-11-05T01:02:43.310Z,24.30
2018-11-05T01:05:24.127Z,22.82
2018-11-05T01:08:04.396Z,29.05
2018-11-05T01:10:42.596Z,24.00
2018-11-05T01:13:22.852Z,27.65
2018-11-05T01:16:01.487Z,25.35
2018-11-05T01:18:37.958Z,30.48
2018-11-05T01:21:16.643Z,32.45
2018-11-05T01:23:51.196Z,32.00
2018-11-05T01:26:33.561Z,26.62
2018-11-05T01:29:12.853Z,27.30
2018-11-05T01:31:53.268Z,22.93
2018-11-05T01:34:33.662Z,27.48
2018-11-05T01:37:14.568Z,27.90
2018-11-05T01:39:56.070Z,23.70
2018-11-05T01:42:36.361Z,27.60
2018-11-05T01:45:18.626Z,31.70
2018-11-05T01:47:59.165Z,29.90
2018-11-05T01:50:37.784Z,29.67
2018-11-05T01:53:16.642Z,26.15
2018-11-05T01:55:56.268Z,29.77
2018-11-05T01:58:36.308Z,28.83
2018-11-05T02:01:16.405Z,27.75
2018-11-05T02:03:55.646Z,21.30
2018-11-05T02:06:36.532Z,26.93
2018-11-05T02:09:17.576Z,26.93
2018-11-05T02:11:56.215Z,25.25
2018-11-05T02:14:35.858Z,24.98
2018-11-05T02:17:15.196Z,31.30
2018-11-05T02:19:56.439Z,24.47
2018-11-05T02:22:35.307Z,31.68
2018-11-05T02:25:15.796Z,26.87
2018-11-05T02:27:54.888Z,28.27
2018-11-05T02:30:36.308Z,22.52
2018-11-05T02:33:14.796Z,29.18
2018-11-05T02:35:55.194Z,32.33
2018-11-05T02:38:34.731Z,25.75
2018-11-05T02:41:13.445Z,26.37
2018-11-05T02:43:52.514Z,23.60
2018-11-05T02:46:27.930Z,27.52
2018-11-05T02:49:06.170Z,29.48
2018-11-05T02:51:45.137Z,30.52
2018-11-05T02:54:23.982Z,28.38
2018-11-05T02:57:04.147Z,34.23
2018-11-05T02:59:44.750Z,34.98
2018-11-05T03:02:24.780Z,32.88
2018-11-05T03:05:04.495Z,27.30
2018-11-05T03:07:42.610Z,34.85
2018-11-05T03:10:22.652Z,28.95
2018-11-05T03:13:03.920Z,32.35
2018-11-05T03:15:42.536Z,35.25
2018-11-05T03:18:25.303Z,35.78
2018-11-05T03:21:04.695Z,31.77
2018-11-05T03:23:45.089Z,37.83
2018-11-05T03:26:26.626Z,29.42
2018-11-05T03:29:06.641Z,31.90
2018-11-05T03:31:46.641Z,35.17
2018-11-05T03:34:26.101Z,31.42
2018-11-05T03:37:06.642Z,37.55
2018-11-05T03:39:46.485Z,33.38
2018-11-05T03:42:26.642Z,33.00
2018-11-05T03:45:05.894Z,34.67
2018-11-05T03:47:46.233Z,33.45
2018-11-05T03:50:25.510Z,34.88
2018-11-05T03:53:05.417Z,36.45
2018-11-05T03:55:45.007Z,28.05
2018-11-05T03:58:24.171Z,25.65
2018-11-05T04:01:03.437Z,32.67
2018-11-05T04:03:43.315Z,34.60
2018-11-05T04:06:24.247Z,37.10
2018-11-05T04:09:02.612Z,32.38
2018-11-05T04:11:43.278Z,29.77
2018-11-05T04:14:22.246Z,34.33
2018-11-05T04:17:02.938Z,33.63
2018-11-05T04:19:44.508Z,31.02
2018-11-05T04:22:23.972Z,30.32
2018-11-05T04:25:04.737Z,29.60
2018-11-05T04:27:40.531Z,30.68
2018-11-05T04:30:18.593Z,24.27
2018-11-05T04:32:58.859Z,28.83
2018-11-05T04:35:35.126Z,30.45
2018-11-05T04:38:15.369Z,27.67
2018-11-05T04:40:54.938Z,29.32
2018-11-05T04:43:33.501Z,25.08
2018-11-05T04:46:10.869Z,26.45
2018-11-05T04:48:38.466Z,24.63
2018-11-05T04:51:06.398Z,24.85
2018-11-05T04:53:35.216Z,23.73
2018-11-05T04:56:05.049Z,23.55
2018-11-05T04:58:33.607Z,24.35
2018-11-05T05:01:01.295Z,27.35
2018-11-05T05:03:30.965Z,21.82
2018-11-05T05:05:59.461Z,22.42
2018-11-05T05:08:27.574Z,22.75
2018-11-05T05:10:55.821Z,23.07
2018-11-05T05:13:23.891Z,30.95
2018-11-05T05:15:52.780Z,20.80
2018-11-05T05:18:21.057Z,25.50
2018-11-05T05:20:48.977Z,23.12
2018-11-05T05:23:19.377Z,21.52
2018-11-05T05:25:47.916Z,19.00
2018-11-05T05:28:15.773Z,26.40
2018-11-05T05:30:43.496Z,24.57
2018-11-05T05:33:11.630Z,26.95
2018-11-05T05:35:39.569Z,21.60
2018-11-05T05:38:08.782Z,32.20
2018-11-05T05:40:37.322Z,28.62
2018-11-05T05:43:05.675Z,23.83
2018-11-05T05:45:38.463Z,26.35
2018-11-05T05:48:09.367Z,26.48
2018-11-05T05:50:37.146Z,26.75
2018-11-05T05:53:12.801Z,26.73
2018-11-05T05:55:48.552Z,26.55
2018-11-05T05:58:20.880Z,31.42
2018-11-05T06:00:57.988Z,26.52
2018-11-05T06:03:32.361Z,27.37
2018-11-05T06:06:09.246Z,24.77
2018-11-05T06:08:39.297Z,26.77
2018-11-05T06:11:09.142Z,24.70
2018-11-05T06:13:42.275Z,25.95
2018-11-05T06:16:23.124Z,23.25
2018-11-05T06:19:02.341Z,29.00
2018-11-05T06:21:44.068Z,26.33
2018-11-05T06:24:25.671Z,25.45
2018-11-05T06:27:05.722Z,21.33
2018-11-05T06:29:46.645Z,21.00
2018-11-05T06:32:26.345Z,21.75
2018-11-05T06:35:06.226Z,20.82
2018-11-05T06:37:46.081Z,16.77
2018-11-05T06:40:24.942Z,20.62
2018-11-05T06:43:04.585Z,19.02
2018-11-05T06:45:43.377Z,20.60
2018-11-05T06:48:22.870Z,23.25
2018-11-05T06:51:02.836Z,22.35
2018-11-05T06:53:42.851Z,30.70
2018-11-05T06:56:22.804Z,20.23
2018-11-05T06:59:02.935Z,27.27
2018-11-05T07:01:43.698Z,26.42
2018-11-05T07:04:24.569Z,26.93
2018-11-05T07:07:04.557Z,22.02
2018-11-05T07:09:45.335Z,20.97
2018-11-05T07:12:25.643Z,26.90
2018-11-05T07:15:05.382Z,22.77
2018-11-05T07:17:44.274Z,31.57
2018-11-05T07:20:26.237Z,21.35
2018-11-05T07:23:05.107Z,23.10
2018-11-05T07:25:46.398Z,23.62
2018-11-05T07:28:24.939Z,20.75
2018-11-05T07:31:04.818Z,19.45
2018-11-05T07:33:45.557Z,18.17
2018-11-05T07:36:25.002Z,19.05
2018-11-05T07:39:08.781Z,23.67
2018-11-05T07:41:48.362Z,19.45
2018-11-05T07:44:28.162Z,21.62
2018-11-05T07:47:07.454Z,23.50
2018-11-05T07:49:46.496Z,27.05
2018-11-05T07:52:26.638Z,19.35
2018-11-05T07:55:06.406Z,20.82
2018-11-05T07:57:44.945Z,18.75
2018-11-05T08:00:29.009Z,17.48
2018-11-05T08:03:09.102Z,19.48
2018-11-05T08:05:49.267Z,23.62
2018-11-05T08:08:27.847Z,18.05
2018-11-05T08:11:06.642Z,16.85
2018-11-05T08:13:46.242Z,20.88
2018-11-05T08:16:25.716Z,19.35
2018-11-05T08:19:06.643Z,18.60
2018-11-05T08:21:46.520Z,20.45
2018-11-05T08:24:26.647Z,19.75
2018-11-05T08:27:06.641Z,20.20
2018-11-05T08:29:46.293Z,17.65
2018-11-05T08:32:25.659Z,20.10
2018-11-05T08:35:03.725Z,21.20
2018-11-05T08:37:44.667Z,19.30
2018-11-05T08:40:25.962Z,20.80
2018-11-05T08:43:05.874Z,18.15
2018-11-05T08:45:44.843Z,18.10
2018-11-05T08:48:26.642Z,20.17
2018-11-05T08:51:05.714Z,21.23
2018-11-05T08:53:46.389Z,20.08
2018-11-05T08:56:25.478Z,22.87
2018-11-05T08:59:05.445Z,23.95
2018-11-05T09:01:45.440Z,20.23
2018-11-05T09:04:25.390Z,20.80
2018-11-05T09:07:06.370Z,19.52
2018-11-05T09:09:45.992Z,17.95
2018-11-05T09:12:26.644Z,21.17
2018-11-05T09:15:06.474Z,19.02
2018-11-05T09:17:44.715Z,17.82
2018-11-05T09:20:25.309Z,21.40
2018-11-05T09:23:04.321Z,19.45
2018-11-05T09:25:46.642Z,21.15
2018-11-05T09:28:26.643Z,17.12
2018-11-05T09:31:04.353Z,21.48
2018-11-05T09:33:45.164Z,26.57
2018-11-05T09:36:24.851Z,17.50
2018-11-05T09:39:05.570Z,25.27
2018-11-05T09:41:45.364Z,23.10
2018-11-05T09:44:25.203Z,24.25
2018-11-05T09:47:04.570Z,18.82
2018-11-05T09:49:43.585Z,26.95
2018-11-05T09:52:23.405Z,25.05
2018-11-05T09:55:03.720Z,20.90
2018-11-05T09:57:43.362Z,22.02
2018-11-05T10:00:24.599Z,20.15
2018-11-05T10:03:24.816Z,20.35
2018-11-05T10:06:03.407Z,28.95
2018-11-05T10:08:45.225Z,26.60
2018-11-05T10:11:24.343Z,22.98
2018-11-05T10:14:04.311Z,21.75
2018-11-05T10:16:43.654Z,25.62
2018-11-05T10:19:23.925Z,20.27
2018-11-05T10:22:03.186Z,24.27
2018-11-05T10:24:43.154Z,24.60
2018-11-05T10:30:05.081Z,23.27
2018-11-05T10:32:46.373Z,23.27
2018-11-05T10:35:30.416Z,22.30
2018-11-05T10:38:11.182Z,21.15
2018-11-05T10:40:50.601Z,24.52
2018-11-05T10:43:30.494Z,22.87
2018-11-05T10:46:09.901Z,23.02
2018-11-05T10:48:50.026Z,25.60
2018-11-05T10:51:30.121Z,25.85
2018-11-05T10:54:09.690Z,24.70
2018-11-05T10:56:48.829Z,25.05
2018-11-05T10:59:27.493Z,20.90
2018-11-05T11:02:10.135Z,21.30
2018-11-05T11:04:50.705Z,24.72
2018-11-05T11:07:30.242Z,25.68
2018-11-05T11:10:09.109Z,24.92
2018-11-05T11:12:50.472Z,22.62
2018-11-05T11:15:30.097Z,22.75
2018-11-05T11:18:08.862Z,19.05
2018-11-05T11:20:46.641Z,29.00
2018-11-05T11:23:26.316Z,22.15
2018-11-05T11:26:04.409Z,24.95
2018-11-05T11:28:44.813Z,26.00
2018-11-05T11:31:25.217Z,24.57
2018-11-05T11:34:04.285Z,28.12
2018-11-05T11:36:45.820Z,29.52
2018-11-05T11:39:25.464Z,31.48
2018-11-05T11:42:05.533Z,29.40
2018-11-05T11:44:45.314Z,36.00
2018-11-05T11:47:26.156Z,30.23
2018-11-05T11:50:05.887Z,30.05
2018-11-05T11:52:45.408Z,31.10
2018-11-05T11:55:26.641Z,29.37
2018-11-05T11:58:06.641Z,24.10
2018-11-05T12:00:46.000Z,26.02
2018-11-05T12:03:26.417Z,22.22
2018-11-05T12:06:05.210Z,25.65
2018-11-05T12:08:45.749Z,23.45
2018-11-05T12:11:26.345Z,24.23
2018-11-05T12:14:04.649Z,20.37
2018-11-05T12:16:44.524Z,19.85
2018-11-05T12:19:22.070Z,18.50
2018-11-05T12:22:02.932Z,24.92
2018-11-05T12:24:42.580Z,23.57
2018-11-05T12:27:23.368Z,27.40
2018-11-05T12:30:02.961Z,27.58
2018-11-05T12:32:43.476Z,31.77
2018-11-05T12:35:16.527Z,23.22
2018-11-05T12:37:50.785Z,34.08
2018-11-05T12:40:23.159Z,31.27
2018-11-05T12:42:53.457Z,24.63
2018-11-05T12:45:22.981Z,18.27
2018-11-05T12:47:53.776Z,16.45
2018-11-05T12:50:23.366Z,19.92
2018-11-05T12:52:57.501Z,21.12
2018-11-05T12:55:33.531Z,17.65
2018-11-05T12:58:04.061Z,18.70
2018-11-05T13:00:34.290Z,19.15
2018-11-05T13:03:05.000Z,22.80
2018-11-05T13:05:34.306Z,22.35
2018-11-05T13:08:08.906Z,19.10
2018-11-05T13:10:39.365Z,39.30
2018-11-05T13:13:08.212Z,16.57
2018-11-05T13:15:39.814Z,13.67
2018-11-05T13:18:09.310Z,34.27
2018-11-05T13:20:40.006Z,16.52
2018-11-05T13:23:12.402Z,25.55
2018-11-05T13:25:42.990Z,22.02
2018-11-05T13:28:14.745Z,15.88
2018-11-05T13:30:54.347Z,43.63
2018-11-05T13:33:24.954Z,18.12
2018-11-05T13:35:59.257Z,19.15
2018-11-05T13:38:34.143Z,21.70
2018-11-05T13:41:09.634Z,26.42
2018-11-05T13:43:39.847Z,18.52
2018-11-05T13:46:12.162Z,28.67
2018-11-05T13:48:54.212Z,33.75
2018-11-05T13:51:28.394Z,24.80
2018-11-05T13:54:07.705Z,19.77
2018-11-05T13:56:47.494Z,19.45
2018-11-05T13:59:25.984Z,21.27
2018-11-05T14:02:05.933Z,21.17
2018-11-05T14:04:46.640Z,13.90
2018-11-05T14:07:24.588Z,15.75
2018-11-05T14:10:04.930Z,16.20
2018-11-05T14:12:45.935Z,15.05
2018-11-05T14:15:28.161Z,16.10
2018-11-05T14:18:08.651Z,16.60
2018-11-05T14:20:49.236Z,15.45
2018-11-05T14:23:22.887Z,14.03
2018-11-05T14:26:02.787Z,19.20
2018-11-05T14:28:41.349Z,16.82
2018-11-05T14:31:20.460Z,15.43
2018-11-05T14:34:00.505Z,17.35
2018-11-05T14:36:39.888Z,13.40
2018-11-05T14:39:19.938Z,18.27
2018-11-05T14:41:56.640Z,14.68
2018-11-05T14:44:30.675Z,16.97
2018-11-05T14:47:08.239Z,17.07
2018-11-05T14:49:39.366Z,17.00
2018-11-05T14:52:12.425Z,14.80
2018-11-05T14:54:48.663Z,23.65
2018-11-05T14:57:28.192Z,14.10
2018-11-05T15:00:09.026Z,16.67
2018-11-05T15:02:49.862Z,18.27
2018-11-05T15:05:30.505Z,17.80
2018-11-05T15:08:13.025Z,14.13
2018-11-05T15:10:52.616Z,20.40
2018-11-05T15:13:31.233Z,15.08
2018-11-05T15:16:09.968Z,27.62
2018-11-05T15:18:50.630Z,19.90
2018-11-05T15:21:31.308Z,16.55
2018-11-05T15:24:10.202Z,16.97
2018-11-05T15:26:49.662Z,15.13
2018-11-05T15:29:29.683Z,29.35
2018-11-05T15:32:08.827Z,18.07
2018-11-05T15:34:47.591Z,20.08
2018-11-05T15:37:26.641Z,18.05
2018-11-05T15:40:05.800Z,24.52
2018-11-05T15:42:41.689Z,17.62
2018-11-05T15:45:22.032Z,19.92
2018-11-05T15:47:58.876Z,21.62
2018-11-05T15:50:38.492Z,17.45
2018-11-05T15:53:17.157Z,18.40
2018-11-05T15:55:57.497Z,16.93
2018-11-05T15:58:35.590Z,22.85
2018-11-05T16:01:14.883Z,20.52
2018-11-05T16:03:52.647Z,21.70
2018-11-05T16:06:32.514Z,21.33
2018-11-05T16:09:12.456Z,19.73
2018-11-05T16:11:51.408Z,19.50
2018-11-05T16:14:29.468Z,25.85
2018-11-05T16:17:09.158Z,41.28
2018-11-05T16:19:48.033Z,32.40
2018-11-05T16:22:23.243Z,53.68
2018-11-05T16:25:01.509Z,44.65
2018-11-05T16:27:38.000Z,27.15
2018-11-05T16:30:18.424Z,29.63
2018-11-05T16:32:58.958Z,21.65
2018-11-05T16:35:36.666Z,23.42
2018-11-05T16:38:13.833Z,22.75
2018-11-05T16:40:53.633Z,21.77
2018-11-05T16:43:33.674Z,23.83
2018-11-05T16:46:12.290Z,20.55
2018-11-05T16:48:53.031Z,22.15
2018-11-05T16:51:33.471Z,26.07
2018-11-05T16:54:13.790Z,20.95
2018-11-05T16:56:55.053Z,31.20
2018-11-05T16:59:35.096Z,27.07
2018-11-05T17:02:19.438Z,22.80
2018-11-05T17:04:59.128Z,21.95
2018-11-05T17:07:39.519Z,25.70
2018-11-05T17:10:21.617Z,28.40
2018-11-05T17:13:01.250Z,36.63
2018-11-05T17:15:40.847Z,33.50
2018-11-05T17:18:20.360Z,31.30
2018-11-05T17:20:59.905Z,32.08
2018-11-05T17:23:40.620Z,26.40
2018-11-05T17:26:19.687Z,27.58
2018-11-05T17:28:56.641Z,33.40
2018-11-05T17:31:35.529Z,22.25
2018-11-05T17:34:16.084Z,27.50
2018-11-05T17:36:55.603Z,27.30
2018-11-05T17:39:39.172Z,38.75
2018-11-05T17:42:16.640Z,38.55
2018-11-05T17:44:56.640Z,32.00
2018-11-05T17:47:36.521Z,34.67
2018-11-05T17:50:20.667Z,37.50
2018-11-05T17:53:00.181Z,55.00
2018-11-05T17:55:35.293Z,37.85
2018-11-05T17:58:15.236Z,35.05
2018-11-05T18:00:54.225Z,39.25
2018-11-05T18:03:33.242Z,41.60
2018-11-05T18:06:14.735Z,35.05
2018-11-05T18:08:54.976Z,28.20
2018-11-05T18:11:34.596Z,29.67
2018-11-05T18:14:13.287Z,31.48
2018-11-05T18:16:55.574Z,37.78
2018-11-05T18:19:34.319Z,35.58
2018-11-05T18:22:14.781Z,34.78
2018-11-05T18:24:51.925Z,36.98
2018-11-05T18:27:33.220Z,37.13
2018-11-05T18:30:13.306Z,41.15
2018-11-05T18:32:55.348Z,36.45
2018-11-05T18:35:33.089Z,31.60
2018-11-05T18:38:13.295Z,35.08
2018-11-05T18:40:53.025Z,39.05
2018-11-05T18:43:34.167Z,38.50
2018-11-05T18:46:13.033Z,34.15
2018-11-05T18:48:52.620Z,33.65
2018-11-05T18:51:31.792Z,33.65
2018-11-05T18:54:12.885Z,30.88
2018-11-05T18:56:51.765Z,32.23
2018-11-05T18:59:31.425Z,30.50
2018-11-05T19:02:11.506Z,35.20
2018-11-05T19:04:51.373Z,36.55
2018-11-05T19:07:31.988Z,32.95
2018-11-05T19:10:13.025Z,32.58
2018-11-05T19:12:53.071Z,39.75
2018-11-05T19:15:33.237Z,31.45
2018-11-05T19:18:14.912Z,44.60
2018-11-05T19:20:54.495Z,37.42
2018-11-05T19:23:33.997Z,49.13
2018-11-05T19:26:16.282Z,49.93
2018-11-05T19:28:55.746Z,51.75
2018-11-05T19:31:35.836Z,53.42
2018-11-05T19:34:18.991Z,51.80
2018-11-05T19:36:58.820Z,41.48
2018-11-05T19:39:35.526Z,37.33
2018-11-05T19:42:15.330Z,34.25
2018-11-05T19:44:49.576Z,40.00
2018-11-05T19:47:27.779Z,36.00
2018-11-05T19:50:06.101Z,31.95
2018-11-05T19:52:48.837Z,34.27
2018-11-05T19:55:27.356Z,39.40
2018-11-05T19:58:06.649Z,39.95
2018-11-05T20:00:43.831Z,39.08
2018-11-05T20:03:22.978Z,33.78
2018-11-05T20:06:03.841Z,32.23
2018-11-05T20:08:43.592Z,39.18
2018-11-05T20:11:19.388Z,36.63
2018-11-05T20:13:56.167Z,33.88
2018-11-05T20:16:29.056Z,36.50
2018-11-05T20:19:09.579Z,27.77
2018-11-05T20:21:48.130Z,26.95
2018-11-05T20:24:26.589Z,27.85
2018-11-05T20:27:06.640Z,31.42
2018-11-05T20:29:46.249Z,29.82
2018-11-05T20:32:14.745Z,35.88
2018-11-05T20:34:54.529Z,32.05
2018-11-05T20:37:34.232Z,28.10
2018-11-05T20:40:14.520Z,32.15
2018-11-05T20:42:55.055Z,30.97
2018-11-05T20:45:35.373Z,49.75
2018-11-05T20:48:13.566Z,45.50
2018-11-05T20:50:55.181Z,38.23
2018-11-05T20:53:34.546Z,28.75
2018-11-05T20:56:15.437Z,39.88
2018-11-05T20:58:55.534Z,57.53
2018-11-05T21:01:36.021Z,43.33
2018-11-05T21:04:15.937Z,38.92
2018-11-05T21:06:56.306Z,54.23
2018-11-05T21:09:35.259Z,62.15
2018-11-05T21:12:14.861Z,33.13
2018-11-05T21:14:55.902Z,45.92
2018-11-05T21:17:34.940Z,41.23
2018-11-05T21:20:14.211Z,45.40
2018-11-05T21:22:54.577Z,48.05
2018-11-05T21:25:35.019Z,43.13
2018-11-05T21:28:15.260Z,46.02
2018-11-05T21:30:55.351Z,40.15
2018-11-05T21:33:34.318Z,31.42
2018-11-05T21:36:14.297Z,37.13
2018-11-05T21:38:54.272Z,36.80
2018-11-05T21:41:33.841Z,39.33
2018-11-05T21:44:14.885Z,34.95
2018-11-05T21:46:56.640Z,44.38
2018-11-05T21:49:35.747Z,37.10
2018-11-05T21:52:16.480Z,34.85
2018-11-05T21:54:55.523Z,30.52
2018-11-05T21:57:36.111Z,30.20
2018-11-05T22:00:17.677Z,34.67
2018-11-05T22:02:59.510Z,34.05
2018-11-05T22:05:39.185Z,30.57
2018-11-05T22:08:18.026Z,30.02
2018-11-05T22:10:56.045Z,33.33
2018-11-05T22:13:36.644Z,38.05
2018-11-05T22:16:15.654Z,36.90
2018-11-05T22:18:55.570Z,39.00
2018-11-05T22:21:34.386Z,37.70
2018-11-05T22:24:14.474Z,37.42
2018-11-05T22:26:52.545Z,41.80
2018-11-05T22:29:32.586Z,37.88
2018-11-05T22:32:12.454Z,33.88
2018-11-05T22:34:51.677Z,37.78
2018-11-05T22:37:32.280Z,38.65
2018-11-05T22:40:13.203Z,39.83
2018-11-05T22:42:53.840Z,35.55
2018-11-05T22:45:33.732Z,39.92
2018-11-05T22:48:13.649Z,41.28
2018-11-05T22:50:53.744Z,40.17
2018-11-05T22:53:33.503Z,37.75
2018-11-05T22:56:13.049Z,35.35
2018-11-05T22:58:52.467Z,33.30
2018-11-05T23:01:36.152Z,36.13
2018-11-05T23:04:15.720Z,33.48
2018-11-05T23:06:56.640Z,37.42
2018-11-05T23:09:35.477Z,38.53
2018-11-05T23:12:15.245Z,44.23
2018-11-05T23:14:55.536Z,39.25
2018-11-05T23:17:36.128Z,37.70
2018-11-05T23:20:14.204Z,36.38
2018-11-05T23:22:55.010Z,42.23
2018-11-05T23:25:35.026Z,42.90
2018-11-05T23:28:15.268Z,41.23
2018-11-05T23:30:56.641Z,36.30
2018-11-05T23:33:35.811Z,35.40
2018-11-05T23:36:19.588Z,32.93
2018-11-05T23:39:01.182Z,38.42
2018-11-05T23:41:40.522Z,34.43
2018-11-05T23:44:20.266Z,43.45
2018-11-05T23:47:00.011Z,36.42
2018-11-05T23:49:39.247Z,36.05
2018-11-05T23:52:18.701Z,36.15
2018-11-05T23:54:58.403Z,42.35
2018-11-05T23:57:36.640Z,38.78
